Time;durP1;ratioP1;P1;durP2;ratioP2;P2;SDS_P1;SDS_P2;PMS_P1;PMS_P2;Temp;Humidity;BMP_temperature;BMP_pressure;BME280_temperature;BME280_humidity;BME280_pressure;Samples;Min_cycle;Max_cycle;Signal;HPM_P1;HPM_P2
2022/12/21 00:00:24;;;;;;;7.43;6.90;;;10.60;99.90;;;;;;5051334;28;20210;-69
2022/12/21 00:02:50;;;;;;;7.50;6.90;;;10.60;99.90;;;;;;5057141;28;20174;-70
2022/12/21 00:05:15;;;;;;;9.27;6.67;;;10.60;99.90;;;;;;5071734;28;20177;-69
2022/12/21 00:07:41;;;;;;;7.13;5.83;;;10.60;99.90;;;;;;5067775;28;20193;-69
2022/12/21 00:10:07;;;;;;;7.60;6.87;;;10.60;99.90;;;;;;5051201;28;20202;-69
2022/12/21 00:12:33;;;;;;;6.80;6.37;;;10.60;99.90;;;;;;5053193;28;20171;-69
2022/12/21 00:14:58;;;;;;;7.90;7.10;;;10.60;99.90;;;;;;5071670;28;20266;-69
2022/12/21 00:17:24;;;;;;;6.33;5.83;;;10.60;99.90;;;;;;5071362;28;20259;-69
2022/12/21 00:19:49;;;;;;;6.07;5.67;;;10.50;99.90;;;;;;5033347;28;20286;-69
2022/12/21 00:22:15;;;;;;;5.63;5.33;;;10.50;99.90;;;;;;5051637;28;20159;-69
2022/12/21 00:24:40;;;;;;;5.27;4.97;;;10.50;99.90;;;;;;5069829;28;20578;-69
2022/12/21 00:27:06;;;;;;;6.63;6.13;;;10.50;99.90;;;;;;5060751;28;20179;-69
2022/12/21 00:29:31;;;;;;;5.83;5.43;;;10.40;99.90;;;;;;5051028;28;20336;-69
2022/12/21 00:31:57;;;;;;;6.23;5.83;;;10.40;99.90;;;;;;5063726;28;20174;-69
2022/12/21 00:34:23;;;;;;;6.57;6.07;;;10.40;99.90;;;;;;5075404;28;20189;-69
2022/12/21 00:36:50;;;;;;;6.33;5.93;;;10.40;99.90;;;;;;5062165;28;20176;-70
2022/12/21 00:39:16;;;;;;;6.40;5.93;;;10.30;99.90;;;;;;5055045;28;20202;-68
2022/12/21 00:41:42;;;;;;;6.53;6.13;;;10.30;99.90;;;;;;5066733;28;20174;-69
2022/12/21 00:44:09;;;;;;;6.30;5.90;;;10.30;99.90;;;;;;5075496;28;20181;-69
2022/12/21 00:46:34;;;;;;;6.60;6.10;;;10.40;99.90;;;;;;5065174;28;20186;-69
2022/12/21 00:49:05;;;;;;;6.57;6.17;;;10.30;99.90;;;;;;5055228;28;20578;-68
2022/12/21 00:51:33;;;;;;;6.10;5.70;;;10.40;99.90;;;;;;5063619;28;20182;-70
2022/12/21 00:53:59;;;;;;;6.87;6.37;;;10.40;99.90;;;;;;5075413;28;20253;-69
2022/12/21 00:56:26;;;;;;;5.83;5.50;;;10.40;99.90;;;;;;5067641;28;20210;-69
2022/12/21 00:58:52;;;;;;;6.60;6.20;;;10.30;99.90;;;;;;5054961;28;20722;-70
2022/12/21 01:01:21;;;;;;;7.20;6.70;;;10.30;99.90;;;;;;5055832;28;20171;-69
2022/12/21 01:03:46;;;;;;;7.27;6.67;;;10.30;99.90;;;;;;5055006;28;20274;-68
2022/12/21 01:06:21;;;;;;;7.33;6.67;;;10.30;99.90;;;;;;5058822;28;20582;-68
2022/12/21 01:08:47;;;;;;;7.37;6.83;;;10.30;99.90;;;;;;5075127;28;20651;-70
2022/12/21 01:11:14;;;;;;;7.73;6.93;;;10.30;99.90;;;;;;5071021;28;20174;-69
2022/12/21 01:13:40;;;;;;;7.93;7.33;;;10.30;99.90;;;;;;5054915;28;20175;-68
2022/12/21 01:16:17;;;;;;;7.97;7.23;;;10.30;99.90;;;;;;5056342;28;20292;-69
2022/12/21 01:18:43;;;;;;;8.37;7.63;;;10.20;99.90;;;;;;5075017;28;20207;-69
2022/12/21 01:21:24;;;;;;;8.10;7.47;;;10.30;99.90;;;;;;5072552;28;20170;-69
2022/12/21 01:23:50;;;;;;;11.87;7.63;;;10.30;99.90;;;;;;5054692;28;20167;-70
2022/12/21 01:26:17;;;;;;;7.37;6.77;;;10.30;99.90;;;;;;5056183;28;20171;-69
2022/12/21 01:28:42;;;;;;;8.70;7.90;;;10.30;99.90;;;;;;5074608;28;20178;-69
2022/12/21 01:31:08;;;;;;;8.20;7.40;;;10.20;99.90;;;;;;5055151;28;20185;-69
2022/12/21 01:33:34;;;;;;;8.87;7.97;;;10.20;99.90;;;;;;5054504;28;20232;-69
2022/12/21 01:36:04;;;;;;;9.23;7.90;;;10.20;99.90;;;;;;5071473;28;20216;-69
2022/12/21 01:38:30;;;;;;;8.70;7.93;;;10.20;99.90;;;;;;5053638;28;20293;-69
2022/12/21 01:40:55;;;;;;;9.33;8.50;;;10.20;99.90;;;;;;5069290;28;20276;-68
2022/12/21 01:43:44;;;;;;;8.77;7.97;;;10.10;99.90;;;;;;5072975;28;20170;-69
2022/12/21 01:46:28;;;;;;;8.80;8.00;;;10.10;99.90;;;;;;5056697;28;20209;-69
2022/12/21 01:49:20;;;;;;;8.33;7.53;;;10.10;99.90;;;;;;5054074;28;20560;-69
2022/12/21 01:51:58;;;;;;;9.13;8.30;;;10.10;99.90;;;;;;5034232;28;20172;-69
2022/12/21 01:54:30;;;;;;;9.90;7.53;;;10.10;99.90;;;;;;5056480;28;20181;-69
2022/12/21 01:56:59;;;;;;;8.73;7.87;;;10.10;99.90;;;;;;5073058;28;20170;-69
2022/12/21 01:59:30;;;;;;;10.10;8.83;;;10.10;99.90;;;;;;5053388;28;20384;-69
2022/12/21 02:01:59;;;;;;;11.13;9.77;;;10.10;99.90;;;;;;5053808;28;20213;-69
2022/12/21 02:04:25;;;;;;;9.57;8.53;;;10.10;99.90;;;;;;5074076;28;20170;-70
2022/12/21 02:06:55;;;;;;;10.37;9.37;;;10.10;99.90;;;;;;5073868;28;20243;-69
2022/12/21 02:09:22;;;;;;;13.53;8.70;;;10.10;99.90;;;;;;5053512;28;20298;-70
2022/12/21 02:11:50;;;;;;;10.63;8.67;;;10.10;99.90;;;;;;5053657;28;20262;-69
2022/12/21 02:14:15;;;;;;;9.93;8.80;;;10.10;99.90;;;;;;5071376;28;20204;-69
2022/12/21 02:17:00;;;;;;;10.27;9.27;;;10.10;99.90;;;;;;5073531;28;20174;-69
2022/12/21 02:19:38;;;;;;;10.93;9.83;;;10.10;99.90;;;;;;5053835;28;20688;-69
2022/12/21 02:22:03;;;;;;;10.10;8.93;;;10.10;99.90;;;;;;5053634;28;20640;-69
2022/12/21 02:25:00;;;;;;;10.87;9.17;;;10.10;99.90;;;;;;5065345;28;20239;-69
2022/12/21 02:27:55;;;;;;;10.70;9.10;;;10.10;99.90;;;;;;5053456;28;20175;-69
2022/12/21 02:30:22;;;;;;;10.80;9.43;;;10.20;99.90;;;;;;5092325;22;20246;-64
2022/12/21 02:33:09;;;;;;;12.93;9.90;;;10.20;99.90;;;;;;5112442;28;20169;-64
2022/12/21 02:35:40;;;;;;;8.90;8.00;;;10.20;99.90;;;;;;5114027;28;20169;-64
2022/12/21 02:38:34;;;;;;;13.97;9.20;;;10.20;99.90;;;;;;5102873;28;20209;-64
2022/12/21 02:41:15;;;;;;;11.63;9.07;;;10.20;99.90;;;;;;5093332;28;20272;-64
2022/12/21 02:44:14;;;;;;;10.70;9.57;;;10.20;99.90;;;;;;5078472;28;20186;-64
2022/12/21 02:46:57;;;;;;;10.03;8.97;;;10.20;99.90;;;;;;5073145;28;20163;-64
2022/12/21 02:49:35;;;;;;;10.13;9.13;;;10.20;99.90;;;;;;5072768;28;20197;-64
2022/12/21 02:52:29;;;;;;;13.77;10.37;;;10.20;99.90;;;;;;5085756;28;20548;-64
2022/12/21 02:55:00;;;;;;;13.03;9.93;;;10.20;99.90;;;;;;5091386;28;20189;-64
2022/12/21 02:57:35;;;;;;;12.20;9.53;;;10.30;99.90;;;;;;5076941;28;20189;-64
2022/12/21 03:00:03;;;;;;;14.63;10.63;;;10.20;99.90;;;;;;5072277;28;20727;-64
2022/12/21 03:05:47;;;;;;;11.07;9.93;;;10.30;99.90;;;;;;5087783;28;20185;-64
2022/12/21 03:08:39;;;;;;;13.77;10.27;;;10.30;99.90;;;;;;5072740;28;20182;-64
2022/12/21 03:11:06;;;;;;;12.30;9.67;;;10.30;99.90;;;;;;5074301;28;20277;-66
2022/12/21 03:13:35;;;;;;;16.93;10.17;;;10.30;99.90;;;;;;5092690;28;20230;-66
2022/12/21 03:16:12;;;;;;;11.73;9.47;;;10.40;99.90;;;;;;5091666;28;20197;-66
2022/12/21 03:19:02;;;;;;;11.17;9.67;;;10.40;99.90;;;;;;5072325;28;20206;-66
2022/12/21 03:21:45;;;;;;;14.43;10.63;;;10.40;99.90;;;;;;5076141;28;20187;-66
2022/12/21 03:24:26;;;;;;;15.23;10.33;;;10.40;99.90;;;;;;5092589;28;20169;-64
2022/12/21 03:27:13;;;;;;;13.57;9.33;;;10.50;99.90;;;;;;5085599;28;20216;-66
2022/12/21 03:29:47;;;;;;;11.27;9.73;;;10.50;99.90;;;;;;5071971;28;20263;-66
2022/12/21 03:32:18;;;;;;;11.50;10.33;;;10.50;99.90;;;;;;5081095;28;20200;-64
2022/12/21 03:34:48;;;;;;;12.37;9.70;;;10.50;99.90;;;;;;5092607;28;20204;-64
2022/12/21 03:37:35;;;;;;;13.03;9.00;;;10.50;99.90;;;;;;5083781;28;20224;-64
2022/12/21 03:40:08;;;;;;;10.17;9.27;;;10.60;99.90;;;;;;5071882;28;20193;-64
2022/12/21 03:42:38;;;;;;;10.53;9.43;;;10.50;99.90;;;;;;5082457;28;20633;-64
2022/12/21 03:45:09;;;;;;;10.90;8.67;;;10.50;99.90;;;;;;5084271;28;20709;-64
2022/12/21 03:47:52;;;;;;;10.03;8.70;;;10.60;99.90;;;;;;5072314;28;20281;-64
2022/12/21 03:50:25;;;;;;;10.33;9.10;;;10.60;99.90;;;;;;5080865;28;20200;-64
2022/12/21 03:53:15;;;;;;;11.43;9.43;;;10.60;99.90;;;;;;5092465;28;20229;-64
2022/12/21 03:55:43;;;;;;;13.00;9.37;;;10.50;99.90;;;;;;5079783;28;20194;-64
2022/12/21 03:58:08;;;;;;;9.37;8.57;;;10.40;99.90;;;;;;5072208;28;20186;-64
2022/12/21 04:00:50;;;;;;;9.97;8.57;;;10.30;99.90;;;;;;5081972;28;20254;-64
2022/12/21 04:03:26;;;;;;;14.17;8.40;;;10.20;99.90;;;;;;5092283;28;20181;-65
2022/12/21 04:06:01;;;;;;;9.33;8.43;;;10.10;99.90;;;;;;5079481;28;20170;-64
2022/12/21 04:08:28;;;;;;;9.47;8.50;;;10.10;99.90;;;;;;5071627;28;20591;-64
2022/12/21 04:10:54;;;;;;;10.20;9.20;;;10.00;99.90;;;;;;5072744;28;20231;-64
2022/12/21 04:13:19;;;;;;;9.67;8.63;;;10.00;99.90;;;;;;5071800;28;20670;-64
2022/12/21 04:21:24;;;;;;;43.97;9.77;;;9.90;99.90;;;;;;5077026;28;20176;-64
2022/12/21 04:29:17;;;;;;;15.00;11.83;;;9.90;99.90;;;;;;5072328;28;20576;-64
2022/12/21 04:31:43;;;;;;;11.87;10.47;;;9.90;99.90;;;;;;5091714;28;20181;-66
2022/12/21 04:34:08;;;;;;;14.93;10.93;;;10.00;99.90;;;;;;5091763;28;20224;-64
2022/12/21 04:39:18;;;;;;;11.57;10.20;;;10.00;99.90;;;;;;5083559;28;20258;-65
2022/12/21 04:41:43;;;;;;;14.80;11.33;;;10.00;99.90;;;;;;5091997;28;20204;-64
2022/12/21 04:44:09;;;;;;;18.73;11.13;;;10.00;99.90;;;;;;5080904;28;20193;-65
2022/12/21 04:46:34;;;;;;;13.33;10.40;;;10.10;99.90;;;;;;5071372;28;20174;-65
2022/12/21 04:49:00;;;;;;;17.07;9.83;;;10.10;99.90;;;;;;5078824;28;20460;-65
2022/12/21 04:51:26;;;;;;;9.80;9.00;;;10.10;99.90;;;;;;5091126;28;20215;-65
2022/12/21 04:53:52;;;;;;;10.90;9.83;;;10.10;99.90;;;;;;5084004;28;20232;-64
2022/12/21 04:56:19;;;;;;;12.37;9.13;;;10.10;99.90;;;;;;5071267;28;20178;-65
2022/12/21 04:58:44;;;;;;;9.57;8.60;;;10.10;99.90;;;;;;5076499;28;20193;-65
2022/12/21 05:01:16;;;;;;;9.10;8.40;;;10.10;99.90;;;;;;5090967;28;20188;-64
2022/12/21 05:03:42;;;;;;;10.97;8.80;;;10.00;99.90;;;;;;5086441;28;20173;-64
2022/12/21 05:06:10;;;;;;;10.20;9.20;;;10.10;99.90;;;;;;5071119;28;20178;-65
2022/12/21 05:08:36;;;;;;;9.23;8.33;;;10.10;99.90;;;;;;5074041;28;20638;-65
2022/12/21 05:11:12;;;;;;;10.87;9.00;;;10.10;99.90;;;;;;5091146;28;20230;-64
2022/12/21 05:13:38;;;;;;;9.37;8.30;;;10.10;99.90;;;;;;5088075;28;20188;-65
2022/12/21 05:16:06;;;;;;;9.67;8.73;;;10.00;99.90;;;;;;5071719;28;20174;-65
2022/12/21 05:18:32;;;;;;;9.97;8.83;;;10.00;99.90;;;;;;5076088;28;20301;-65
2022/12/21 05:20:58;;;;;;;10.83;9.03;;;10.00;99.90;;;;;;5094552;28;20714;-65
2022/12/21 05:23:23;;;;;;;11.93;8.43;;;10.00;99.90;;;;;;5094619;28;20204;-65
2022/12/21 05:25:49;;;;;;;10.97;8.67;;;10.00;99.90;;;;;;5074454;28;20174;-65
2022/12/21 05:28:15;;;;;;;14.80;8.37;;;10.10;99.90;;;;;;5074453;28;20573;-65
2022/12/21 05:30:40;;;;;;;9.63;8.33;;;10.10;99.90;;;;;;5091407;28;20374;-64
2022/12/21 05:33:06;;;;;;;11.43;8.30;;;10.10;99.90;;;;;;5091941;28;20203;-65
2022/12/21 05:35:31;;;;;;;10.07;9.13;;;10.10;99.90;;;;;;5082068;28;20186;-65
2022/12/21 05:37:57;;;;;;;12.53;10.37;;;10.00;99.90;;;;;;5093369;28;20185;-65
2022/12/21 05:40:23;;;;;;;11.70;9.10;;;10.00;99.90;;;;;;5080456;28;20406;-65
2022/12/21 05:42:48;;;;;;;8.83;8.03;;;10.00;99.90;;;;;;5073265;28;20572;-64
2022/12/21 05:45:14;;;;;;;12.50;8.67;;;10.00;99.90;;;;;;5073256;28;20178;-64
2022/12/21 05:47:40;;;;;;;10.53;9.33;;;10.00;99.90;;;;;;5073116;28;20178;-65
2022/12/21 05:50:06;;;;;;;11.60;9.33;;;10.00;99.90;;;;;;5088635;28;20197;-65
2022/12/21 05:52:32;;;;;;;11.17;9.47;;;10.10;99.90;;;;;;5092680;28;20170;-65
2022/12/21 05:54:57;;;;;;;10.30;8.50;;;10.10;99.90;;;;;;5078618;28;20170;-65
2022/12/21 05:57:23;;;;;;;18.00;9.00;;;10.10;99.90;;;;;;5072744;28;20250;-65
2022/12/21 05:59:48;;;;;;;16.83;8.03;;;10.20;99.90;;;;;;5085029;28;20259;-65
2022/12/21 06:02:14;;;;;;;15.60;7.83;;;10.10;99.90;;;;;;5092998;28;20169;-65
2022/12/21 06:04:40;;;;;;;28.77;8.27;;;10.10;99.90;;;;;;5073444;28;20174;-64
2022/12/21 06:07:05;;;;;;;11.07;7.67;;;10.10;99.90;;;;;;5072776;28;20173;-64
2022/12/21 06:09:31;;;;;;;65.10;10.47;;;10.00;99.90;;;;;;5089415;28;20223;-64
2022/12/21 06:11:56;;;;;;;20.80;7.67;;;10.00;99.90;;;;;;5086106;28;20179;-65
2022/12/21 06:14:22;;;;;;;56.70;9.20;;;10.00;99.90;;;;;;5072475;28;20178;-64
2022/12/21 06:16:47;;;;;;;13.23;7.87;;;10.00;99.90;;;;;;5077292;28;20735;-64
2022/12/21 06:19:13;;;;;;;33.93;8.37;;;10.00;99.90;;;;;;5092407;28;20201;-65
2022/12/21 06:21:39;;;;;;;24.20;8.70;;;10.00;99.90;;;;;;5090852;28;20170;-65
2022/12/21 06:24:05;;;;;;;25.50;7.73;;;9.90;99.90;;;;;;5092630;28;20211;-65
2022/12/21 06:26:30;;;;;;;17.03;7.43;;;9.90;99.90;;;;;;5083636;28;20177;-65
2022/12/21 06:28:56;;;;;;;17.63;7.20;;;9.90;99.90;;;;;;5032498;28;1110605;-65
2022/12/21 06:31:22;;;;;;;10.13;7.10;;;9.90;99.90;;;;;;5073082;28;20588;-65
2022/12/21 06:33:47;;;;;;;7.23;6.53;;;9.90;99.90;;;;;;5073279;28;20167;-65
2022/12/21 06:36:14;;;;;;;9.53;8.50;;;9.90;99.90;;;;;;5074694;28;20178;-65
2022/12/21 06:38:40;;;;;;;7.97;7.27;;;9.70;99.90;;;;;;5074052;28;20205;-65
2022/12/21 06:41:11;;;;;;;9.87;7.10;;;9.70;99.90;;;;;;5072797;28;20194;-65
2022/12/21 06:43:38;;;;;;;7.50;6.87;;;9.80;99.90;;;;;;5074446;28;20209;-65
2022/12/21 06:46:09;;;;;;;8.17;7.47;;;9.80;99.90;;;;;;5093284;28;20696;-65
2022/12/21 06:48:36;;;;;;;12.77;7.43;;;9.70;99.90;;;;;;5092080;28;20178;-65
2022/12/21 06:51:05;;;;;;;7.17;6.20;;;9.70;99.90;;;;;;5071359;28;20627;-65
2022/12/21 06:53:33;;;;;;;8.17;7.37;;;9.70;99.90;;;;;;5084903;28;20169;-65
2022/12/21 06:56:00;;;;;;;8.53;7.57;;;9.70;99.90;;;;;;5092899;28;20170;-65
2022/12/21 06:58:26;;;;;;;17.57;8.20;;;9.70;99.90;;;;;;5092757;28;20655;-64
2022/12/21 07:00:51;;;;;;;16.47;13.63;;;9.70;99.90;;;;;;5073581;28;20221;-65
2022/12/21 07:03:17;;;;;;;11.07;9.57;;;9.70;99.90;;;;;;5077376;28;20205;-65
2022/12/21 07:05:42;;;;;;;11.33;9.70;;;9.70;99.90;;;;;;5092675;28;20162;-64
2022/12/21 07:08:08;;;;;;;10.23;8.67;;;9.70;99.90;;;;;;5089274;28;20257;-64
2022/12/21 07:10:36;;;;;;;9.20;8.40;;;9.80;99.90;;;;;;5071836;28;20198;-65
2022/12/21 07:13:02;;;;;;;9.60;8.40;;;9.80;99.90;;;;;;5074108;28;20178;-64
2022/12/21 07:15:27;;;;;;;9.40;8.60;;;9.80;99.90;;;;;;5092432;28;20441;-64
2022/12/21 07:17:53;;;;;;;7.60;7.07;;;9.80;99.90;;;;;;5090898;28;20197;-65
2022/12/21 07:20:18;;;;;;;8.70;7.90;;;9.80;99.90;;;;;;5071768;28;20194;-64
2022/12/21 07:22:44;;;;;;;8.97;8.07;;;9.80;99.90;;;;;;5072098;28;20511;-65
2022/12/21 07:25:10;;;;;;;8.00;7.30;;;9.80;99.90;;;;;;5090608;28;20177;-65
2022/12/21 07:27:36;;;;;;;9.03;8.23;;;9.70;99.90;;;;;;5091016;28;20639;-64
2022/12/21 07:30:01;;;;;;;9.60;8.60;;;9.70;99.90;;;;;;5074826;28;20245;-64
2022/12/21 07:32:27;;;;;;;8.50;7.50;;;9.70;99.90;;;;;;5085712;28;20257;-65
2022/12/21 07:34:52;;;;;;;10.40;7.80;;;9.80;99.90;;;;;;5092291;28;20180;-65
2022/12/21 07:37:18;;;;;;;8.33;7.60;;;9.80;99.90;;;;;;5077785;28;20243;-63
2022/12/21 07:39:43;;;;;;;10.00;8.33;;;9.80;99.90;;;;;;5071368;28;20217;-63
2022/12/21 07:42:09;;;;;;;15.00;8.97;;;9.80;99.90;;;;;;5072911;28;20178;-63
2022/12/21 07:44:34;;;;;;;10.30;7.50;;;9.90;99.90;;;;;;5071571;28;20170;-63
2022/12/21 07:47:00;;;;;;;9.90;8.63;;;9.90;99.90;;;;;;5080277;28;20178;-63
2022/12/21 07:49:25;;;;;;;9.83;8.83;;;9.90;99.90;;;;;;5091648;28;20611;-63
2022/12/21 07:51:51;;;;;;;9.17;8.10;;;9.90;99.90;;;;;;5084894;28;20182;-64
2022/12/21 07:54:17;;;;;;;9.13;8.23;;;9.90;99.90;;;;;;5071429;28;20169;-64
2022/12/21 07:56:42;;;;;;;9.93;8.07;;;10.00;99.90;;;;;;5072381;28;20182;-63
2022/12/21 07:59:08;;;;;;;9.43;8.53;;;9.90;99.90;;;;;;5071177;28;20659;-63
2022/12/21 08:01:33;;;;;;;8.23;7.43;;;9.90;99.90;;;;;;5074580;28;20173;-64
2022/12/21 08:04:00;;;;;;;10.77;8.47;;;10.00;99.90;;;;;;5091753;28;20638;-63
2022/12/21 08:06:26;;;;;;;9.37;8.40;;;10.10;99.90;;;;;;5089587;28;20656;-63
2022/12/21 08:08:52;;;;;;;8.60;7.80;;;10.20;99.90;;;;;;5071427;28;20174;-63
2022/12/21 08:11:19;;;;;;;14.40;7.40;;;10.20;99.90;;;;;;5070726;28;20249;-64
2022/12/21 08:13:46;;;;;;;7.90;7.23;;;10.20;99.90;;;;;;5091828;28;20170;-63
2022/12/21 08:16:15;;;;;;;9.17;8.37;;;10.20;99.90;;;;;;5089690;28;20723;-63
2022/12/21 08:18:41;;;;;;;7.80;7.10;;;10.20;99.90;;;;;;5090997;28;20190;-63
2022/12/21 08:21:06;;;;;;;17.50;8.47;;;10.20;99.90;;;;;;5091375;28;20193;-63
2022/12/21 08:23:32;;;;;;;11.13;8.10;;;10.30;99.90;;;;;;5073560;28;20261;-63
2022/12/21 08:26:02;;;;;;;8.67;7.77;;;10.30;99.90;;;;;;5085799;28;20177;-64
2022/12/21 08:28:28;;;;;;;12.37;8.77;;;10.30;99.90;;;;;;5091863;28;20232;-64
2022/12/21 08:31:12;;;;;;;8.57;7.87;;;10.30;99.90;;;;;;5111451;22;20645;-66
2022/12/21 08:33:41;;;;;;;8.33;7.63;;;10.30;99.90;;;;;;5091364;28;20519;-66
2022/12/21 08:36:15;;;;;;;10.93;7.63;;;10.30;99.90;;;;;;5091145;28;20256;-66
2022/12/21 08:38:41;;;;;;;9.07;8.13;;;10.30;99.90;;;;;;5091059;28;20212;-66
2022/12/21 08:41:07;;;;;;;8.63;7.83;;;10.50;99.90;;;;;;5090734;28;20662;-66
2022/12/21 08:43:37;;;;;;;8.43;7.63;;;10.50;99.90;;;;;;5091414;28;20172;-67
2022/12/21 08:46:04;;;;;;;9.00;8.13;;;10.60;99.90;;;;;;5090308;28;20185;-66
2022/12/21 08:48:30;;;;;;;7.63;7.03;;;10.60;99.90;;;;;;5088928;28;20177;-66
2022/12/21 08:50:56;;;;;;;7.70;7.10;;;10.70;99.90;;;;;;5086626;28;20284;-66
2022/12/21 08:53:22;;;;;;;7.23;6.60;;;10.70;99.90;;;;;;5102271;28;20227;-66
2022/12/21 08:55:48;;;;;;;9.30;8.13;;;10.80;99.90;;;;;;5095171;28;20594;-66
2022/12/21 08:58:14;;;;;;;9.00;8.03;;;10.80;99.90;;;;;;5094737;28;20215;-66
2022/12/21 09:00:42;;;;;;;8.27;7.57;;;10.80;99.90;;;;;;5109353;28;20195;-66
2022/12/21 09:03:08;;;;;;;8.87;8.27;;;10.80;99.90;;;;;;5114214;28;20200;-66
2022/12/21 09:05:34;;;;;;;9.73;7.80;;;10.80;99.90;;;;;;5076731;28;20204;-66
2022/12/21 09:08:00;;;;;;;9.00;8.10;;;10.80;99.90;;;;;;5095208;28;20247;-67
2022/12/21 09:10:26;;;;;;;8.67;7.93;;;10.90;99.90;;;;;;5093814;28;20240;-66
2022/12/21 09:12:52;;;;;;;8.97;8.07;;;10.90;99.90;;;;;;5094878;28;20197;-66
2022/12/21 09:15:17;;;;;;;8.70;7.77;;;10.80;99.90;;;;;;5096213;28;20180;-65
2022/12/21 09:17:43;;;;;;;8.60;7.80;;;10.80;99.90;;;;;;5096891;28;20203;-66
2022/12/21 09:20:09;;;;;;;9.10;8.27;;;10.80;99.90;;;;;;5102517;28;20189;-66
2022/12/21 09:22:35;;;;;;;13.00;8.17;;;10.80;99.90;;;;;;5095219;28;20535;-66
2022/12/21 09:25:01;;;;;;;10.40;8.53;;;10.70;99.90;;;;;;5076525;28;20184;-66
2022/12/21 09:27:27;;;;;;;10.83;8.60;;;10.60;99.90;;;;;;5094509;28;20170;-66
2022/12/21 09:29:52;;;;;;;9.37;7.67;;;10.50;99.90;;;;;;5093659;28;20205;-65
2022/12/21 09:32:18;;;;;;;9.67;7.57;;;10.50;99.90;;;;;;5094422;28;20589;-66
2022/12/21 09:34:44;;;;;;;11.07;8.47;;;10.30;99.90;;;;;;5093926;28;20180;-66
2022/12/21 09:37:10;;;;;;;13.93;8.90;;;10.20;99.90;;;;;;5094343;28;20181;-65
2022/12/21 09:39:35;;;;;;;15.03;9.07;;;10.10;99.90;;;;;;5091816;28;20219;-66
2022/12/21 09:42:16;;;;;;;12.70;9.30;;;10.00;99.90;;;;;;5093967;28;20544;-65
2022/12/21 09:44:47;;;;;;;16.10;9.93;;;10.10;99.90;;;;;;5093318;28;20260;-66
2022/12/21 09:47:21;;;;;;;21.40;11.60;;;10.00;99.90;;;;;;5094053;28;20172;-65
2022/12/21 09:49:49;;;;;;;16.47;10.63;;;10.10;99.90;;;;;;5093229;28;20284;-65
2022/12/21 09:52:36;;;;;;;20.30;12.23;;;10.30;99.90;;;;;;5093623;28;20181;-65
2022/12/21 09:55:11;;;;;;;16.80;11.40;;;10.50;99.90;;;;;;5093986;28;20264;-66
2022/12/21 09:57:37;;;;;;;25.00;15.47;;;10.70;99.90;;;;;;5093393;28;20181;-65
2022/12/21 10:00:12;;;;;;;28.17;18.57;;;11.00;99.90;;;;;;5092415;28;20574;-66
2022/12/21 10:03:04;;;;;;;31.30;21.33;;;11.30;99.90;;;;;;5077933;28;20179;-66
2022/12/21 10:05:51;;;;;;;33.57;22.57;;;11.40;99.90;;;;;;5114183;28;20260;-66
2022/12/21 10:08:51;;;;;;;17.80;14.20;;;11.70;99.90;;;;;;5096994;28;20265;-66
2022/12/21 10:11:31;;;;;;;15.27;9.30;;;11.70;99.90;;;;;;5093424;28;20193;-66
2022/12/21 10:13:59;;;;;;;11.93;10.30;;;11.50;99.90;;;;;;5093718;28;20177;-66
2022/12/21 10:16:53;;;;;;;17.47;10.23;;;11.20;99.90;;;;;;5093568;28;20177;-65
2022/12/21 10:19:31;;;;;;;13.07;8.77;;;10.90;99.90;;;;;;5100535;28;20206;-65
2022/12/21 10:22:08;;;;;;;15.57;9.40;;;10.60;99.90;;;;;;5114085;28;20183;-66
2022/12/21 10:25:01;;;;;;;16.20;9.83;;;10.30;99.90;;;;;;5104903;28;20541;-65
2022/12/21 10:27:37;;;;;;;11.07;9.47;;;10.20;99.90;;;;;;5076351;28;20173;-65
2022/12/21 10:30:04;;;;;;;16.43;10.20;;;10.00;99.90;;;;;;5113475;28;20210;-66
2022/12/21 10:32:36;;;;;;;18.63;15.07;;;9.90;99.90;;;;;;5111973;28;20177;-65
2022/12/21 10:35:27;;;;;;;20.50;14.77;;;9.90;99.90;;;;;;5093033;28;20181;-65
2022/12/21 10:37:55;;;;;;;20.10;9.33;;;9.80;99.90;;;;;;5093441;28;20205;-65
2022/12/21 10:40:29;;;;;;;16.53;11.80;;;9.80;99.90;;;;;;5090782;28;20538;-65
2022/12/21 10:42:55;;;;;;;16.57;10.17;;;9.90;99.90;;;;;;5093068;28;20227;-65
2022/12/21 10:45:25;;;;;;;19.50;12.13;;;9.90;99.90;;;;;;5092655;28;20189;-66
2022/12/21 10:47:50;;;;;;;18.47;10.87;;;9.90;99.90;;;;;;5093059;28;20653;-66
2022/12/21 10:50:21;;;;;;;13.70;10.50;;;9.90;99.90;;;;;;5092550;28;20224;-65
2022/12/21 10:52:49;;;;;;;18.47;10.07;;;10.00;99.90;;;;;;5092659;28;20181;-65
2022/12/21 10:55:17;;;;;;;21.93;11.17;;;10.10;99.90;;;;;;5092169;28;20270;-65
2022/12/21 10:57:44;;;;;;;12.80;10.00;;;10.20;99.90;;;;;;5092926;28;20211;-66
2022/12/21 11:00:29;;;;;;;16.47;10.03;;;10.30;99.90;;;;;;5073970;28;20645;-66
2022/12/21 11:03:00;;;;;;;11.63;9.13;;;10.30;99.90;;;;;;5092571;28;20204;-65
2022/12/21 11:05:35;;;;;;;9.57;8.13;;;10.40;99.90;;;;;;5101831;28;20181;-65
2022/12/21 11:08:42;;;;;;;13.67;8.73;;;10.40;99.90;;;;;;5091953;28;20189;-65
2022/12/21 11:11:32;;;;;;;16.60;9.13;;;10.40;99.90;;;;;;5009761;28;20261;-65
2022/12/21 11:14:17;;;;;;;9.27;7.43;;;10.50;99.90;;;;;;5086696;28;20182;-66
2022/12/21 11:16:47;;;;;;;15.57;7.73;;;10.60;99.90;;;;;;5074251;28;20177;-65
2022/12/21 11:19:16;;;;;;;19.40;12.70;;;10.60;99.90;;;;;;5092158;28;20201;-66
2022/12/21 11:21:49;;;;;;;12.20;7.67;;;10.80;99.90;;;;;;5092071;28;20211;-65
2022/12/21 11:24:34;;;;;;;7.77;6.87;;;10.90;99.90;;;;;;5074114;28;20165;-65
2022/12/21 11:27:03;;;;;;;16.00;7.10;;;11.00;99.90;;;;;;5092182;28;20174;-65
2022/12/21 11:29:51;;;;;;;10.50;7.50;;;11.00;99.90;;;;;;5091715;28;20658;-66
2022/12/21 11:32:18;;;;;;;13.27;7.33;;;11.00;99.90;;;;;;5077514;28;20205;-65
2022/12/21 11:34:56;;;;;;;10.00;7.07;;;11.10;99.90;;;;;;5092039;28;20208;-65
2022/12/21 11:37:37;;;;;;;7.83;6.20;;;11.30;99.90;;;;;;5091825;28;20264;-65
2022/12/21 11:40:16;;;;;;;10.00;6.30;;;11.40;99.90;;;;;;5091828;28;20201;-66
2022/12/21 11:43:00;;;;;;;10.13;5.90;;;11.40;99.90;;;;;;5091904;28;20173;-65
2022/12/21 11:45:46;;;;;;;5.93;5.43;;;11.40;99.90;;;;;;5073674;28;20169;-65
2022/12/21 11:48:30;;;;;;;7.27;6.57;;;11.20;99.90;;;;;;5073628;28;20181;-65
2022/12/21 11:51:06;;;;;;;7.47;6.70;;;11.10;99.90;;;;;;5073235;28;20636;-65
2022/12/21 11:53:32;;;;;;;8.60;6.60;;;11.00;99.90;;;;;;5091903;28;20180;-65
2022/12/21 11:56:15;;;;;;;14.43;7.73;;;10.90;99.90;;;;;;5091639;28;20181;-65
2022/12/21 11:58:43;;;;;;;7.63;6.90;;;10.80;99.90;;;;;;5092124;28;20197;-65
2022/12/21 12:01:33;;;;;;;11.07;7.83;;;10.80;99.90;;;;;;5091204;28;20204;-66
2022/12/21 12:04:18;;;;;;;11.47;7.63;;;10.70;99.90;;;;;;5091785;28;20626;-65
2022/12/21 12:06:55;;;;;;;10.27;7.87;;;10.50;99.90;;;;;;5091409;28;20588;-65
2022/12/21 12:10:02;;;;;;;10.77;7.37;;;10.60;99.90;;;;;;5091374;28;20580;-65
2022/12/21 12:12:49;;;;;;;17.67;6.93;;;10.60;99.90;;;;;;5065423;28;20574;-65
2022/12/21 12:15:41;;;;;;;7.47;6.73;;;10.60;99.90;;;;;;5057773;28;20553;-64
2022/12/21 12:18:28;;;;;;;9.03;6.53;;;10.60;99.90;;;;;;5091353;28;20253;-65
2022/12/21 12:21:15;;;;;;;7.40;6.50;;;10.60;99.90;;;;;;5091215;28;20554;-65
2022/12/21 12:24:08;;;;;;;6.97;6.33;;;10.60;99.90;;;;;;5091324;28;20230;-65
2022/12/21 12:27:10;;;;;;;7.37;6.67;;;10.70;99.90;;;;;;5090895;28;20256;-65
2022/12/21 12:29:52;;;;;;;10.23;6.30;;;10.80;99.90;;;;;;5090891;28;20205;-65
2022/12/21 12:32:36;;;;;;;6.70;6.30;;;10.90;99.90;;;;;;5091185;28;20646;-65
2022/12/21 12:35:32;;;;;;;6.50;6.10;;;11.00;99.90;;;;;;5091296;28;20223;-65
2022/12/21 12:38:18;;;;;;;6.63;6.00;;;11.20;99.90;;;;;;5073028;28;20201;-65
2022/12/21 12:40:44;;;;;;;7.10;6.00;;;11.20;99.90;;;;;;5091086;28;20643;-65
2022/12/21 12:43:28;;;;;;;6.70;6.20;;;11.20;99.90;;;;;;5091126;28;20300;-65
2022/12/21 12:46:51;;;;;;;8.90;6.27;;;11.30;99.90;;;;;;5091378;28;20170;-65
2022/12/21 12:49:50;;;;;;;8.73;6.00;;;11.20;99.90;;;;;;5028436;28;20183;-66
2022/12/21 12:52:21;;;;;;;6.10;5.57;;;11.20;99.90;;;;;;5028884;28;20262;-65
2022/12/21 12:54:57;;;;;;;7.80;5.80;;;11.10;99.90;;;;;;5079634;28;20303;-65
2022/12/21 12:58:13;;;;;;;9.10;5.87;;;11.20;99.90;;;;;;5091482;28;20170;-65
2022/12/21 13:01:17;;;;;;;5.63;4.93;;;11.20;99.90;;;;;;4991947;28;20610;-67
2022/12/21 13:03:57;;;;;;;9.63;5.93;;;11.30;99.90;;;;;;5010935;28;20172;-65
2022/12/21 13:06:30;;;;;;;6.67;6.00;;;11.20;99.90;;;;;;5064845;28;20182;-65
2022/12/21 13:09:20;;;;;;;8.10;5.10;;;11.20;99.90;;;;;;5077503;28;20256;-65
2022/12/21 13:11:48;;;;;;;5.37;4.97;;;11.20;99.90;;;;;;5091173;28;20193;-64
2022/12/21 13:14:17;;;;;;;6.37;5.87;;;11.20;99.90;;;;;;5090962;28;20184;-65
2022/12/21 13:17:16;;;;;;;6.60;5.10;;;11.20;99.90;;;;;;5090727;28;20169;-65
2022/12/21 13:19:45;;;;;;;5.57;5.07;;;11.20;99.90;;;;;;5090213;28;20205;-66
2022/12/21 13:22:14;;;;;;;5.70;5.10;;;11.10;99.90;;;;;;5090949;28;20642;-65
2022/12/21 13:24:58;;;;;;;6.83;5.20;;;11.20;99.90;;;;;;5072345;28;20184;-65